Time;durP1;ratioP1;P1;durP2;ratioP2;P2;SDS_P1;SDS_P2;PMS_P1;PMS_P2;Temp;Humidity;BMP_temperature;BMP_pressure;BME280_temperature;BME280_humidity;BME280_pressure;Samples;Min_cycle;Max_cycle;Signal;HPM_P1;HPM_P2
2020/12/28 00:00:15;;;;;;;28.30;14.30;;;;;;;0.30;75.93;98970.91;1797400;77;25685;-85
2020/12/28 00:02:41;;;;;;;25.08;15.83;;;;;;;0.29;75.94;98969.30;1806267;77;25833;-85
2020/12/28 00:05:10;;;;;;;23.27;14.28;;;;;;;0.29;76.02;98962.40;1808830;77;26682;-85
2020/12/28 00:07:38;;;;;;;23.87;15.32;;;;;;;0.30;76.06;98957.62;1812120;77;26162;-84
2020/12/28 00:10:08;;;;;;;23.27;14.53;;;;;;;0.32;76.08;98945.42;1813663;77;25820;-85
2020/12/28 00:12:46;;;;;;;27.73;14.50;;;;;;;0.32;76.08;98952.33;1805004;77;25745;-86
2020/12/28 00:15:04;;;;;;;26.50;15.83;;;;;;;0.29;76.14;98948.74;1812300;77;25686;-85
2020/12/28 00:17:30;;;;;;;23.20;14.53;;;;;;;0.28;76.17;98939.42;1812062;77;25734;-86
2020/12/28 00:19:57;;;;;;;22.13;14.20;;;;;;;0.21;76.33;98927.09;1811199;77;26494;-84
2020/12/28 00:22:23;;;;;;;25.20;14.33;;;;;;;0.26;76.35;98929.27;1803787;77;25995;-85
2020/12/28 00:24:50;;;;;;;25.52;14.45;;;;;;;0.26;76.42;98929.75;1815246;77;26404;-85
2020/12/28 00:27:16;;;;;;;25.25;15.28;;;;;;;0.26;76.45;98934.88;1803195;77;26874;-86
2020/12/28 00:29:42;;;;;;;25.17;14.20;;;;;;;0.25;76.52;98925.09;1798289;77;26377;-86
2020/12/28 00:32:09;;;;;;;23.55;14.55;;;;;;;0.25;76.59;98935.36;1810592;77;25665;-85
2020/12/28 00:34:35;;;;;;;22.60;14.38;;;;;;;0.25;76.69;98925.09;1807143;77;26683;-85
2020/12/28 00:37:02;;;;;;;25.15;15.05;;;;;;;0.26;76.78;98923.33;1818358;77;25495;-85
2020/12/28 00:39:28;;;;;;;20.15;13.75;;;;;;;0.25;76.82;98915.29;1807489;77;26278;-86
2020/12/28 00:41:55;;;;;;;24.20;15.43;;;;;;;0.24;76.90;98914.93;1808660;77;25787;-85
2020/12/28 00:44:21;;;;;;;25.20;14.33;;;;;;;0.25;76.99;98898.59;1806033;77;25977;-85
2020/12/28 00:46:48;;;;;;;24.85;15.05;;;;;;;0.24;77.07;98902.09;1806860;77;25807;-86
2020/12/28 00:49:14;;;;;;;23.00;13.38;;;;;;;0.24;77.12;98898.23;1808218;77;25697;-85
2020/12/28 00:51:41;;;;;;;20.27;13.75;;;;;;;0.24;77.18;98898.23;1811801;77;25709;-85
2020/12/28 00:54:08;;;;;;;22.80;14.80;;;;;;;0.25;77.21;98901.96;1818483;77;25892;-84
2020/12/28 00:56:34;;;;;;;21.40;14.33;;;;;;;0.25;77.31;98889.12;1823917;76;25857;-85
2020/12/28 00:59:01;;;;;;;23.47;14.05;;;;;;;0.26;77.30;98888.16;1821924;76;26420;-85
2020/12/28 01:01:28;;;;;;;20.27;13.93;;;;;;;0.25;77.33;98882.70;1827678;76;26223;-85
2020/12/28 01:03:54;;;;;;;20.57;14.55;;;;;;;0.28;77.42;98880.33;1825360;76;26863;-84
2020/12/28 01:06:22;;;;;;;22.02;13.65;;;;;;;0.29;77.45;98881.46;1814771;77;25868;-85
2020/12/28 01:08:54;;;;;;;20.60;13.62;;;;;;;0.32;77.54;98877.81;1827932;76;25835;-85
2020/12/28 01:11:23;;;;;;;23.27;14.18;;;;;;;0.30;77.54;98874.11;1819327;76;25867;-84
2020/12/28 01:13:54;;;;;;;21.80;14.53;;;;;;;0.33;77.63;98867.89;1819926;76;25866;-84
2020/12/28 01:16:21;;;;;;;21.42;14.25;;;;;;;0.34;77.74;98855.36;1826461;76;25663;-85
2020/12/28 01:18:48;;;;;;;20.02;12.50;;;;;;;0.34;77.73;98851.03;1831129;76;26484;-85
2020/12/28 01:21:22;;;;;;;23.00;14.83;;;;;;;0.35;77.83;98846.70;1828601;76;26690;-84
2020/12/28 01:23:48;;;;;;;20.80;13.85;;;;;;;0.38;77.90;98839.99;1800308;77;25638;-85
2020/12/28 01:26:19;;;;;;;22.85;14.33;;;;;;;0.38;77.98;98835.69;1824575;76;25978;-85
2020/12/28 01:28:47;;;;;;;22.00;14.23;;;;;;;0.40;78.04;98836.81;1816667;76;25863;-85
2020/12/28 01:31:14;;;;;;;21.60;13.43;;;;;;;0.43;78.09;98833.48;1825491;76;25923;-84
2020/12/28 01:33:59;;;;;;;19.25;13.53;;;;;;;0.46;78.18;98825.17;1823493;76;26589;-84
2020/12/28 01:36:27;;;;;;;24.57;14.85;;;;;;;0.48;78.22;98820.72;1827548;77;25755;-85
2020/12/28 01:38:54;;;;;;;19.35;12.40;;;;;;;0.50;78.34;98805.97;1827878;76;25718;-84
2020/12/28 01:41:20;;;;;;;19.52;12.78;;;;;;;0.53;78.38;98805.69;1822748;76;26339;-85
2020/12/28 01:43:48;;;;;;;22.07;12.78;;;;;;;0.55;78.47;98803.80;1824368;77;26420;-85
2020/12/28 01:46:17;;;;;;;21.02;13.98;;;;;;;0.57;78.48;98795.45;1786287;78;25748;-85
2020/12/28 01:48:45;;;;;;;22.80;13.45;;;;;;;0.57;78.51;98784.72;1746819;79;25623;-86
2020/12/28 01:51:13;;;;;;;19.32;13.32;;;;;;;0.58;78.52;98775.23;1763243;79;25872;-85
2020/12/28 01:53:41;;;;;;;19.07;14.03;;;;;;;0.61;78.55;98771.91;1758115;80;25644;-85
2020/12/28 01:56:09;;;;;;;20.32;13.75;;;;;;;0.63;78.59;98767.92;1758944;79;25869;-86
2020/12/28 01:58:37;;;;;;;19.40;12.50;;;;;;;0.65;78.65;98766.83;1747526;79;25840;-86
2020/12/28 02:01:05;;;;;;;20.05;13.22;;;;;;;0.69;78.69;98764.78;1737060;79;26477;-86
2020/12/28 02:03:31;;;;;;;18.60;13.38;;;;;;;0.71;78.73;98751.31;1732410;81;26042;-86
2020/12/28 02:06:09;;;;;;;18.52;12.45;;;;;;;0.72;78.71;98761.92;1743256;79;26549;-86
2020/12/28 02:08:35;;;;;;;21.07;12.88;;;;;;;0.74;78.70;98764.36;1744096;79;25839;-85
2020/12/28 02:11:02;;;;;;;21.12;13.30;;;;;;;0.77;78.71;98767.93;1743094;79;25848;-85
2020/12/28 02:13:29;;;;;;;26.70;13.60;;;;;;;0.78;78.72;98766.48;1751264;79;26070;-86
2020/12/28 02:16:09;;;;;;;21.57;13.43;;;;;;;0.82;78.74;98768.32;1744147;80;25826;-85
2020/12/28 02:18:38;;;;;;;20.85;12.82;;;;;;;0.83;78.71;98760.92;1739657;80;26313;-86
2020/12/28 02:21:07;;;;;;;21.45;13.80;;;;;;;0.84;78.76;98758.68;1745285;80;26072;-86
2020/12/28 02:23:34;;;;;;;21.52;13.03;;;;;;;0.85;78.77;98761.60;1721416;81;25897;-88
2020/12/28 02:26:01;;;;;;;18.65;12.18;;;;;;;0.85;78.86;98762.41;1728671;80;26811;-86
2020/12/28 02:28:27;;;;;;;20.27;13.25;;;;;;;0.87;78.88;98763.08;1723006;80;26423;-87
2020/12/28 02:30:54;;;;;;;20.80;13.03;;;;;;;0.91;78.93;98753.31;1741075;80;26680;-87
2020/12/28 02:33:42;;;;;;;20.08;13.38;;;;;;;0.95;78.98;98764.91;1737817;80;25690;-85
2020/12/28 02:36:16;;;;;;;18.45;12.73;;;;;;;0.97;79.05;98764.30;1740593;80;25762;-86
2020/12/28 02:38:44;;;;;;;21.20;12.90;;;;;;;1.01;79.06;98763.53;1739879;80;26112;-86
2020/12/28 02:41:11;;;;;;;23.95;11.68;;;;;;;1.03;79.09;98755.20;1733217;80;25850;-87
2020/12/28 02:43:55;;;;;;;21.57;13.68;;;;;;;1.07;79.10;98755.27;1753421;79;25793;-86
2020/12/28 02:46:24;;;;;;;21.85;13.18;;;;;;;1.12;79.12;98742.78;1622290;86;25444;-86
2020/12/28 02:48:52;;;;;;;19.30;12.75;;;;;;;1.14;79.12;98740.84;1593099;88;25887;-87
2020/12/28 02:51:37;;;;;;;18.87;12.37;;;;;;;1.15;79.13;98745.06;1583081;88;25878;-86
2020/12/28 02:54:22;;;;;;;21.35;13.98;;;;;;;1.18;79.21;98732.38;1570767;89;25869;-85
2020/12/28 02:57:06;;;;;;;19.70;13.05;;;;;;;1.19;79.22;98728.84;1580051;88;26555;-86
2020/12/28 02:59:51;;;;;;;18.67;13.38;;;;;;;1.22;79.22;98724.69;1587839;88;26032;-87
2020/12/28 03:02:36;;;;;;;20.02;13.58;;;;;;;1.26;79.27;98721.69;1583497;88;26655;-87
2020/12/28 03:05:21;;;;;;;18.27;12.95;;;;;;;1.31;79.27;98717.40;1586759;88;25934;-87
2020/12/28 03:08:06;;;;;;;22.22;13.75;;;;;;;1.33;79.27;98714.17;1586888;88;26556;-87
2020/12/28 03:10:51;;;;;;;19.17;12.47;;;;;;;1.35;79.28;98707.61;1585339;88;25793;-86
2020/12/28 03:13:36;;;;;;;18.57;12.23;;;;;;;1.36;79.32;98710.50;1582042;88;25840;-86
2020/12/28 03:16:19;;;;;;;18.42;13.03;;;;;;;1.37;79.31;98712.95;1557953;89;26023;-86
2020/12/28 03:19:04;;;;;;;18.37;12.78;;;;;;;1.40;79.31;98713.13;1534196;91;25998;-86
2020/12/28 03:21:49;;;;;;;20.88;13.22;;;;;;;1.41;79.35;98692.38;1596964;87;25740;-86
2020/12/28 03:24:34;;;;;;;20.17;13.08;;;;;;;1.41;79.39;98700.09;1551066;90;25796;-87
2020/12/28 03:27:08;;;;;;;18.35;12.60;;;;;;;1.41;79.36;98688.52;1564730;89;25945;-87
2020/12/28 03:29:52;;;;;;;17.67;12.30;;;;;;;1.44;79.35;98686.12;1577104;89;25897;-86
2020/12/28 03:32:37;;;;;;;16.90;12.53;;;;;;;1.46;79.38;98675.20;1577303;89;26487;-85
2020/12/28 03:35:22;;;;;;;19.05;12.15;;;;;;;1.47;79.38;98678.10;1579201;89;25956;-87
2020/12/28 03:38:07;;;;;;;19.92;14.20;;;;;;;1.47;79.37;98672.50;1568104;89;26672;-87
2020/12/28 03:40:52;;;;;;;18.05;13.30;;;;;;;1.46;79.40;98666.20;1561305;89;26657;-88
2020/12/28 03:43:37;;;;;;;18.27;12.53;;;;;;;1.48;79.45;98663.80;1573195;89;25714;-87
2020/12/28 03:46:21;;;;;;;15.70;12.10;;;;;;;1.48;79.44;98643.22;1580295;89;25855;-87
2020/12/28 03:49:06;;;;;;;18.67;12.23;;;;;;;1.50;79.50;98655.92;1573343;89;26366;-88
2020/12/28 03:51:51;;;;;;;19.60;12.70;;;;;;;1.51;79.51;98657.55;1608679;86;25900;-86
2020/12/28 03:54:36;;;;;;;19.37;12.82;;;;;;;1.52;79.58;98637.28;1592735;87;25862;-86
2020/12/28 03:57:21;;;;;;;19.42;12.60;;;;;;;1.53;79.65;98631.99;1663689;84;25825;-87
2020/12/28 04:00:05;;;;;;;18.60;13.60;;;;;;;1.52;79.67;98630.36;1653457;84;25735;-88
2020/12/28 04:02:43;;;;;;;17.55;12.65;;;;;;;1.52;79.73;98629.07;1660541;84;26598;-88
2020/12/28 04:05:28;;;;;;;17.65;12.10;;;;;;;1.53;79.73;98610.11;1773481;78;26354;-86
2020/12/28 04:08:13;;;;;;;20.05;13.53;;;;;;;1.55;79.72;98604.34;1779466;78;26655;-87
2020/12/28 04:10:50;;;;;;;20.72;13.95;;;;;;;1.56;79.70;98598.70;1689834;82;25919;-87
2020/12/28 04:13:18;;;;;;;16.77;12.63;;;;;;;1.57;79.72;98601.59;1621635;86;26150;-87
2020/12/28 04:15:45;;;;;;;18.95;11.60;;;;;;;1.59;79.77;98599.69;1625436;86;26806;-87
2020/12/28 04:18:11;;;;;;;17.05;12.45;;;;;;;1.57;79.78;98591.30;1627151;86;26060;-86
2020/12/28 04:20:38;;;;;;;16.62;11.75;;;;;;;1.59;79.84;98596.31;1629334;86;26056;-86
2020/12/28 04:23:04;;;;;;;16.77;12.33;;;;;;;1.57;79.84;98577.63;1623111;86;26698;-86
2020/12/28 04:25:31;;;;;;;19.32;12.43;;;;;;;1.58;79.87;98581.80;1628425;86;25425;-86
2020/12/28 04:27:57;;;;;;;16.32;11.78;;;;;;;1.60;79.88;98578.60;1625254;86;26313;-86
2020/12/28 04:30:24;;;;;;;20.45;12.55;;;;;;;1.60;80.11;98581.98;1624915;86;26437;-87
2020/12/28 04:32:50;;;;;;;17.90;12.80;;;;;;;1.57;80.05;98568.13;1601639;86;25779;-86
2020/12/28 04:35:16;;;;;;;17.10;11.57;;;;;;;1.57;80.10;98569.41;1622942;86;25951;-86
2020/12/28 04:37:43;;;;;;;17.62;12.23;;;;;;;1.58;80.12;98566.35;1626652;86;25784;-86
2020/12/28 04:40:10;;;;;;;16.50;11.22;;;;;;;1.59;80.27;98564.12;1625460;86;26718;-86
2020/12/28 04:42:42;;;;;;;18.87;11.25;;;;;;;1.61;80.30;98557.03;1626159;86;25903;-88
2020/12/28 04:45:10;;;;;;;18.55;12.33;;;;;;;1.64;80.32;98565.28;1627004;86;26387;-87
2020/12/28 04:47:37;;;;;;;18.02;12.40;;;;;;;1.67;80.38;98559.02;1649591;83;25791;-87
2020/12/28 04:50:06;;;;;;;16.50;11.97;;;;;;;1.69;80.41;98563.06;1688016;79;25459;-87
2020/12/28 04:52:34;;;;;;;19.52;12.37;;;;;;;1.70;80.50;98554.84;1781582;78;25789;-87
2020/12/28 04:55:02;;;;;;;18.02;11.85;;;;;;;1.71;80.50;98554.68;1793036;77;25700;-88
2020/12/28 04:57:29;;;;;;;15.75;11.18;;;;;;;1.72;80.56;98539.58;1821814;77;25740;-87
2020/12/28 04:59:56;;;;;;;15.18;11.15;;;;;;;1.74;80.81;98550.51;1815618;77;25740;-87
2020/12/28 05:02:24;;;;;;;18.92;12.37;;;;;;;1.80;80.48;98540.10;1816223;77;25727;-87
2020/12/28 05:04:51;;;;;;;32.05;22.32;;;;;;;1.80;80.48;98540.10;1818438;77;25883;-87
2020/12/28 05:07:18;;;;;;;18.82;13.32;;;;;;;1.85;80.93;98544.28;1815538;77;25806;-87
2020/12/28 05:09:44;;;;;;;16.25;11.65;;;;;;;1.85;80.93;98544.28;1814621;77;26213;-87
2020/12/28 05:12:11;;;;;;;17.48;12.28;;;;;;;1.80;80.79;98527.67;1822061;77;26331;-87
2020/12/28 05:14:37;;;;;;;18.12;12.10;;;;;;;1.87;81.20;98535.92;1817517;77;25820;-86
2020/12/28 05:17:07;;;;;;;15.40;10.95;;;;;;;1.87;81.13;98538.98;1815235;77;26275;-86
2020/12/28 05:19:34;;;;;;;17.70;12.35;;;;;;;1.88;81.27;98536.27;1817854;77;25721;-87
2020/12/28 05:24:36;;;;;;;16.03;12.07;;;;;;;2.01;81.41;98539.69;1774433;77;25675;-87
2020/12/28 05:27:03;;;;;;;15.72;11.63;;;;;;;2.02;81.49;98546.47;1758888;79;25689;-86
2020/12/28 05:29:29;;;;;;;15.98;11.83;;;;;;;2.09;81.42;98542.78;1786489;79;25777;-86
2020/12/28 05:31:56;;;;;;;19.48;12.37;;;;;;;2.11;81.42;98538.28;1780073;78;25796;-86
2020/12/28 05:34:26;;;;;;;17.02;11.97;;;;;;;2.11;81.42;98553.26;1782126;79;25859;-87
2020/12/28 05:36:56;;;;;;;16.50;12.07;;;;;;;2.11;81.37;98546.02;1781701;78;25682;-86
2020/12/28 05:39:26;;;;;;;15.08;11.70;;;;;;;2.12;81.35;98546.33;1782881;79;25297;-86
2020/12/28 05:42:07;;;;;;;16.23;12.35;;;;;;;2.12;81.40;98556.63;1771434;79;25793;-87
2020/12/28 05:44:30;;;;;;;16.70;11.45;;;;;;;2.15;81.38;98555.03;1773453;79;25695;-87
2020/12/28 05:47:13;;;;;;;17.82;12.10;;;;;;;2.18;81.34;98546.98;1769051;79;25901;-87
2020/12/28 05:49:46;;;;;;;17.98;12.40;;;;;;;2.19;81.29;98550.70;1773665;79;26659;-87
2020/12/28 05:52:15;;;;;;;17.73;12.33;;;;;;;2.21;81.43;98557.81;1774020;79;25324;-86
2020/12/28 05:54:42;;;;;;;17.50;12.13;;;;;;;2.21;81.23;98555.23;1772544;78;26493;-87
2020/12/28 05:57:10;;;;;;;17.35;12.28;;;;;;;2.17;81.27;98551.83;1774384;79;26416;-86
2020/12/28 05:59:38;;;;;;;17.67;12.00;;;;;;;2.13;81.46;98563.42;1781655;79;25768;-88
2020/12/28 06:02:08;;;;;;;18.40;13.25;;;;;;;2.13;81.43;98567.28;1785544;79;25823;-88
2020/12/28 06:04:34;;;;;;;17.85;13.00;;;;;;;2.14;81.50;98564.53;1773113;78;25819;-88
2020/12/28 06:07:04;;;;;;;16.57;11.48;;;;;;;2.04;81.74;98535.50;1743270;79;26214;-87
2020/12/28 06:09:31;;;;;;;17.90;12.60;;;;;;;2.04;81.74;98535.50;1778267;78;26678;-87
2020/12/28 06:12:09;;;;;;;17.50;12.25;;;;;;;2.19;81.60;98537.02;1773665;79;25769;-87
2020/12/28 06:14:38;;;;;;;19.07;13.65;;;;;;;2.20;81.61;98527.03;1779581;79;25780;-88
2020/12/28 06:17:12;;;;;;;19.20;13.93;;;;;;;2.24;81.55;98543.80;1772435;79;25894;-89
2020/12/28 06:19:41;;;;;;;17.02;13.53;;;;;;;2.25;81.59;98535.09;1775053;79;25939;-88
2020/12/28 06:22:24;;;;;;;20.10;12.98;;;;;;;2.25;81.71;98549.77;1771795;79;25798;-88
2020/12/28 06:25:03;;;;;;;18.75;13.50;;;;;;;2.25;81.80;98557.00;1786175;79;25702;-89
2020/12/28 06:27:37;;;;;;;19.17;12.53;;;;;;;2.21;81.88;98544.13;1754481;80;25775;-86
2020/12/28 06:30:19;;;;;;;15.32;12.60;;;;;;;2.21;81.89;98539.77;1746904;81;25876;-87
2020/12/28 06:32:49;;;;;;;17.65;12.05;;;;;;;2.25;81.90;98535.59;1775199;79;25714;-87
2020/12/28 06:35:17;;;;;;;19.00;12.80;;;;;;;2.23;81.89;98535.73;1777035;79;25770;-87
2020/12/28 06:37:53;;;;;;;17.07;11.65;;;;;;;2.25;81.97;98533.81;1782465;79;25772;-87
2020/12/28 06:40:31;;;;;;;20.05;12.90;;;;;;;2.23;82.00;98536.53;1775651;78;25881;-87
2020/12/28 06:43:18;;;;;;;17.70;13.18;;;;;;;2.26;81.95;98536.70;1776526;78;26623;-86
2020/12/28 06:45:50;;;;;;;19.70;14.18;;;;;;;2.27;82.02;98534.47;1779502;78;25852;-87
2020/12/28 06:48:23;;;;;;;19.70;14.20;;;;;;;2.27;82.06;98542.20;1772720;78;25737;-87
2020/12/28 06:50:51;;;;;;;20.65;15.35;;;;;;;2.25;81.99;98550.56;1773851;78;26323;-87
2020/12/28 06:53:24;;;;;;;17.80;14.15;;;;;;;2.23;82.03;98545.55;1779105;79;25907;-87
2020/12/28 06:55:50;;;;;;;20.08;14.33;;;;;;;2.21;82.05;98553.14;1777399;79;25481;-86
2020/12/28 06:58:17;;;;;;;19.82;13.75;;;;;;;2.20;82.03;98547.64;1782987;79;25775;-87
2020/12/28 07:00:44;;;;;;;18.62;12.63;;;;;;;2.18;82.07;98549.11;1774476;79;26363;-87
2020/12/28 07:03:16;;;;;;;19.35;12.40;;;;;;;2.17;82.13;98544.09;1778604;79;25283;-87
2020/12/28 07:05:43;;;;;;;16.25;12.40;;;;;;;2.16;82.25;98545.06;1780180;79;25670;-86
2020/12/28 07:08:10;;;;;;;18.40;12.78;;;;;;;2.15;82.30;98541.66;1778444;78;25909;-87
2020/12/28 07:10:37;;;;;;;22.93;14.00;;;;;;;2.14;82.32;98534.91;1750768;79;26438;-87
2020/12/28 07:13:07;;;;;;;19.70;14.80;;;;;;;2.16;82.37;98534.76;1747755;79;26141;-87
2020/12/28 07:15:35;;;;;;;21.68;14.25;;;;;;;2.14;82.50;98513.00;1749953;79;25995;-87
2020/12/28 07:18:06;;;;;;;18.48;14.45;;;;;;;2.14;82.74;98526.38;1767958;78;25829;-85
2020/12/28 07:20:32;;;;;;;20.10;14.43;;;;;;;2.13;82.77;98511.39;1767787;80;25621;-86
2020/12/28 07:22:58;;;;;;;17.75;13.13;;;;;;;2.12;82.92;98512.34;1773446;80;25753;-87
2020/12/28 07:25:25;;;;;;;20.25;14.53;;;;;;;2.15;82.67;98523.63;1796905;79;25736;-87
2020/12/28 07:27:51;;;;;;;19.50;13.75;;;;;;;2.15;82.67;98523.63;1795745;79;25785;-86
2020/12/28 07:30:18;;;;;;;105.43;63.35;;;;;;;2.22;82.75;98527.69;1789740;79;25744;-87
2020/12/28 07:32:44;;;;;;;187.25;103.60;;;;;;;2.25;82.75;98525.28;1804086;79;26421;-88
2020/12/28 07:35:11;;;;;;;144.25;77.47;;;;;;;2.25;82.75;98525.28;1798810;79;25661;-88
2020/12/28 07:37:42;;;;;;;77.37;46.10;;;;;;;2.23;82.81;98518.98;1790393;79;25545;-87
2020/12/28 07:40:09;;;;;;;72.95;45.05;;;;;;;2.23;82.81;98518.98;1793689;77;26335;-88
2020/12/28 07:42:36;;;;;;;54.70;37.42;;;;;;;2.25;82.92;98511.10;1790963;79;25766;-88
2020/12/28 07:45:07;;;;;;;35.10;26.77;;;;;;;2.27;82.51;98505.31;1803818;79;26457;-88
2020/12/28 07:47:48;;;;;;;25.45;20.15;;;;;;;2.29;82.90;98509.80;1790486;79;26245;-87
2020/12/28 07:50:16;;;;;;;22.25;17.48;;;;;;;2.29;82.90;98509.80;1796430;79;25291;-88
2020/12/28 07:53:12;;;;;;;23.60;16.57;;;;;;;2.32;82.88;98512.89;1796701;79;25692;-88
2020/12/28 07:55:47;;;;;;;22.07;16.00;;;;;;;2.34;83.12;98511.44;1800148;79;25741;-87
2020/12/28 07:58:34;;;;;;;26.07;18.87;;;;;;;2.27;82.97;98495.80;1793788;79;25741;-87
2020/12/28 08:01:02;;;;;;;21.93;16.17;;;;;;;2.37;83.04;98504.67;1795157;79;25840;-88
2020/12/28 08:03:48;;;;;;;27.30;19.00;;;;;;;2.29;83.06;98498.20;1763211;79;25847;-88
2020/12/28 08:06:16;;;;;;;26.70;17.90;;;;;;;2.21;83.16;98475.34;1796821;79;25820;-87
2020/12/28 08:08:42;;;;;;;30.85;18.48;;;;;;;2.43;83.06;98505.34;1793373;79;25735;-86
2020/12/28 08:11:09;;;;;;;22.07;15.38;;;;;;;2.43;83.04;98504.86;1797874;79;25410;-86
2020/12/28 08:13:37;;;;;;;21.35;16.15;;;;;;;2.35;82.97;98492.44;1793658;77;26654;-86
2020/12/28 08:16:13;;;;;;;24.67;16.75;;;;;;;2.41;83.02;98496.95;1796437;79;26261;-86
2020/12/28 08:18:54;;;;;;;22.22;14.95;;;;;;;2.43;83.02;98502.28;1795889;77;25844;-88
2020/12/28 08:21:25;;;;;;;22.30;16.93;;;;;;;2.44;83.04;98506.45;1797047;79;25257;-88
2020/12/28 08:23:58;;;;;;;23.90;15.95;;;;;;;2.39;83.25;98497.10;1795031;79;25422;-86
2020/12/28 08:26:28;;;;;;;26.73;17.40;;;;;;;2.52;83.17;98501.00;1787200;77;25734;-86
2020/12/28 08:28:59;;;;;;;23.62;15.10;;;;;;;2.44;82.75;98489.70;1793335;77;25728;-86
2020/12/28 08:31:34;;;;;;;21.62;15.70;;;;;;;2.55;83.24;98488.59;1800800;79;25355;-86
2020/12/28 08:34:10;;;;;;;22.25;15.48;;;;;;;2.56;83.23;98488.09;1790216;79;25700;-86
2020/12/28 08:36:40;;;;;;;28.10;18.92;;;;;;;2.60;83.08;98493.27;1797501;79;25719;-87
2020/12/28 08:39:19;;;;;;;23.60;17.27;;;;;;;2.60;83.08;98493.27;1802265;79;27085;-86
2020/12/28 08:41:56;;;;;;;28.62;18.48;;;;;;;2.64;83.26;98485.52;1795914;79;25812;-86
2020/12/28 08:44:33;;;;;;;23.38;16.12;;;;;;;2.66;83.25;98474.08;1800732;77;25797;-85
2020/12/28 08:47:07;;;;;;;28.40;19.23;;;;;;;2.69;83.23;98470.38;1791194;77;25669;-86
2020/12/28 08:49:34;;;;;;;23.37;16.73;;;;;;;2.74;83.02;98471.99;1788708;77;25790;-87
2020/12/28 08:52:12;;;;;;;25.32;19.12;;;;;;;2.77;83.28;98462.63;1796580;79;27078;-87
2020/12/28 08:54:40;;;;;;;25.85;17.23;;;;;;;2.79;83.33;98468.45;1799622;79;25916;-86
2020/12/28 08:57:23;;;;;;;22.52;16.10;;;;;;;2.74;83.34;98462.97;1795544;79;25344;-86
2020/12/28 08:59:51;;;;;;;22.90;17.23;;;;;;;2.82;83.38;98471.98;1800297;77;25698;-86
2020/12/28 09:02:21;;;;;;;33.53;20.97;;;;;;;2.87;83.27;98450.38;1801082;79;25330;-86
2020/12/28 09:04:48;;;;;;;25.95;18.35;;;;;;;2.87;83.27;98450.38;1792488;77;25763;-86
2020/12/28 09:07:15;;;;;;;22.42;16.67;;;;;;;2.94;83.36;98455.69;1791733;77;25855;-87
2020/12/28 09:09:44;;;;;;;21.50;16.23;;;;;;;2.96;83.31;98458.11;1792770;79;26492;-86
2020/12/28 09:12:11;;;;;;;22.17;17.25;;;;;;;3.02;83.35;98460.83;1794717;79;26358;-88
2020/12/28 09:14:40;;;;;;;21.77;16.50;;;;;;;3.06;83.30;98444.55;1788552;79;25744;-87
2020/12/28 09:17:06;;;;;;;20.00;15.05;;;;;;;3.09;83.27;98444.23;1793444;77;25588;-87
2020/12/28 09:19:33;;;;;;;28.15;20.68;;;;;;;3.15;83.28;98440.17;1795899;79;25743;-87
2020/12/28 09:22:01;;;;;;;26.77;17.80;;;;;;;3.04;83.28;98413.73;1789207;77;25671;-86
2020/12/28 09:24:27;;;;;;;27.45;18.75;;;;;;;3.15;83.15;98424.69;1794352;79;25751;-86
2020/12/28 09:26:58;;;;;;;23.25;16.87;;;;;;;3.15;83.15;98424.69;1789189;78;25925;-86
2020/12/28 09:29:25;;;;;;;;;;;;;;;3.15;83.17;98432.44;1793513;78;26354;-86
2020/12/28 09:31:52;;;;;;;22.82;15.63;;;;;;;3.15;83.18;98419.03;1784860;77;26313;-86
2020/12/28 09:34:18;;;;;;;22.85;15.55;;;;;;;3.17;83.27;98420.17;1793809;79;25255;-86
2020/12/28 09:36:44;;;;;;;21.90;15.70;;;;;;;3.20;83.34;98409.52;1789637;78;25761;-86
2020/12/28 09:39:11;;;;;;;22.07;16.42;;;;;;;3.26;83.37;98400.61;1790381;78;25262;-87
2020/12/28 09:41:37;;;;;;;18.00;14.35;;;;;;;3.35;83.41;98391.05;1792394;78;25561;-86
2020/12/28 09:44:04;;;;;;;23.60;17.70;;;;;;;3.44;83.46;98388.77;1792172;79;25742;-87
2020/12/28 09:46:30;;;;;;;18.02;13.58;;;;;;;3.54;83.45;98383.38;1782769;79;25687;-88
2020/12/28 09:48:56;;;;;;;18.48;13.45;;;;;;;3.62;83.37;98370.92;1783763;79;26395;-87
2020/12/28 09:51:23;;;;;;;19.37;13.60;;;;;;;3.70;83.34;98354.89;1786635;79;25333;-87
2020/12/28 09:53:49;;;;;;;18.02;13.80;;;;;;;3.76;83.37;98341.77;1784332;79;26489;-87
2020/12/28 09:56:16;;;;;;;21.65;14.55;;;;;;;3.80;83.20;98330.63;1785651;79;25756;-87
2020/12/28 09:58:42;;;;;;;21.75;13.22;;;;;;;3.85;83.18;98336.09;1777394;79;25932;-87
2020/12/28 10:01:10;;;;;;;18.60;13.95;;;;;;;3.90;83.07;98342.80;1787338;79;25689;-87
2020/12/28 10:03:37;;;;;;;17.30;13.18;;;;;;;3.95;82.98;98344.39;1792931;79;25864;-87
2020/12/28 10:06:30;;;;;;;16.20;12.00;;;;;;;4.00;82.96;98349.84;1790481;79;25877;-87
2020/12/28 10:08:32;;;;;;;19.20;13.15;;;;;;;4.07;82.91;98339.64;1780428;79;25537;-87
2020/12/28 10:10:59;;;;;;;17.70;12.40;;;;;;;4.11;82.89;98322.30;1787841;79;25933;-86
2020/12/28 10:13:25;;;;;;;18.57;13.65;;;;;;;4.18;82.83;98330.98;1789145;77;25934;-87
2020/12/28 10:15:52;;;;;;;16.48;12.60;;;;;;;4.25;82.89;98332.86;1787216;79;25659;-87
2020/12/28 10:18:27;;;;;;;15.85;11.53;;;;;;;4.29;82.81;98319.91;1788427;77;25714;-88
2020/12/28 10:20:53;;;;;;;16.12;10.82;;;;;;;4.33;82.68;98306.44;1782508;79;26663;-86
2020/12/28 10:23:20;;;;;;;16.42;10.72;;;;;;;4.39;82.69;98310.09;1794661;79;25683;-87
2020/12/28 10:25:47;;;;;;;14.93;11.22;;;;;;;4.42;82.62;98316.23;1793224;77;26412;-87
2020/12/28 10:28:13;;;;;;;15.28;10.53;;;;;;;4.49;82.58;98301.59;1792836;79;25780;-88
2020/12/28 10:30:40;;;;;;;16.17;11.12;;;;;;;4.57;82.57;98304.60;1784491;77;25810;-87
2020/12/28 10:33:06;;;;;;;16.60;11.53;;;;;;;4.63;82.47;98302.09;1788548;79;25834;-87
2020/12/28 10:35:33;;;;;;;20.23;14.05;;;;;;;4.66;82.22;98290.12;1787222;79;25787;-87
2020/12/28 10:37:59;;;;;;;22.07;17.02;;;;;;;4.71;82.23;98288.77;1779714;77;25634;-87
2020/12/28 10:40:26;;;;;;;23.25;16.37;;;;;;;4.74;82.19;98280.65;1781726;79;25846;-87
2020/12/28 10:42:52;;;;;;;18.85;12.47;;;;;;;4.71;81.93;98268.87;1782391;79;25759;-88
2020/12/28 10:45:19;;;;;;;14.47;10.75;;;;;;;4.68;81.94;98282.96;1766096;77;25867;-88
2020/12/28 10:47:46;;;;;;;16.60;11.10;;;;;;;4.66;81.87;98268.59;1721476;81;26479;-87
2020/12/28 10:50:12;;;;;;;15.70;10.60;;;;;;;4.64;81.79;98280.44;1720643;82;26600;-88
2020/12/28 10:52:38;;;;;;;12.90;8.95;;;;;;;4.63;81.74;98274.13;1717018;81;26578;-87
2020/12/28 10:55:05;;;;;;;16.12;10.63;;;;;;;4.61;81.77;98262.69;1711763;82;26276;-87
2020/12/28 10:57:31;;;;;;;14.98;10.35;;;;;;;4.62;81.76;98250.05;1706005;82;26037;-87
2020/12/28 10:59:58;;;;;;;16.15;10.43;;;;;;;4.63;81.79;98241.79;1709620;82;26313;-87
2020/12/28 11:02:24;;;;;;;15.68;11.55;;;;;;;4.64;81.84;98237.75;1719928;82;25801;-87
2020/12/28 11:04:50;;;;;;;14.98;9.78;;;;;;;4.65;81.81;98219.14;1713015;82;25789;-88
2020/12/28 11:07:17;;;;;;;14.23;10.63;;;;;;;4.65;81.88;98207.00;1712001;82;25841;-87
2020/12/28 11:09:43;;;;;;;13.65;10.78;;;;;;;4.65;81.90;98202.32;1713438;82;25755;-87
2020/12/28 11:12:10;;;;;;;17.25;10.15;;;;;;;4.64;81.85;98205.91;1713852;82;25947;-86
2020/12/28 11:14:36;;;;;;;14.75;9.73;;;;;;;4.65;81.93;98209.59;1711385;82;25880;-86
2020/12/28 11:17:03;;;;;;;14.53;9.18;;;;;;;4.68;81.96;98200.66;1711850;81;25802;-86
2020/12/28 11:19:30;;;;;;;15.88;10.28;;;;;;;4.73;82.01;98192.37;1711560;82;25726;-87
2020/12/28 11:21:56;;;;;;;14.35;9.65;;;;;;;4.78;81.99;98205.07;1713294;82;25790;-85
2020/12/28 11:24:23;;;;;;;16.55;10.98;;;;;;;4.83;81.99;98207.92;1713246;82;25897;-86
2020/12/28 11:26:49;;;;;;;15.28;10.65;;;;;;;4.85;81.92;98197.38;1715094;82;25724;-86
2020/12/28 11:29:16;;;;;;;14.83;10.30;;;;;;;4.88;81.92;98191.36;1722228;81;26397;-86
2020/12/28 11:31:43;;;;;;;13.43;9.70;;;;;;;4.89;81.78;98208.98;1715645;81;25818;-87
2020/12/28 11:34:09;;;;;;;15.45;9.55;;;;;;;4.89;81.81;98194.75;1714600;82;25819;-87
2020/12/28 11:36:36;;;;;;;19.90;12.55;;;;;;;4.87;81.75;98179.88;1715330;82;25484;-87
2020/12/28 11:39:02;;;;;;;13.60;9.78;;;;;;;4.87;81.80;98175.50;1715722;82;26480;-87
2020/12/28 11:41:29;;;;;;;17.02;11.80;;;;;;;4.89;81.80;98170.16;1717072;81;25732;-86
2020/12/28 11:43:55;;;;;;;15.98;11.12;;;;;;;4.93;81.87;98167.50;1714721;82;25750;-89